Portada
METAR-TAF:

METAR-TAF

Aeroports :

Aeroport Internacional Imam Khomeini

Teheran, Iran

latitud: 35-24-58N, longitud: 51-09-08E, altitud: 1007 m

Observació

L'informe es va fer fa 23 minuts, a les 16:30 UTC
Vent calma
Temperatura 11°C
Humitat 35%
Pressió 1023 hPa
Visibilitat 10 km o més
Escasses núvols a una alçada de 10000 ft

METAR: OIIE 121630Z 00000KT 9999 FEW100 11/M04 Q1023 NOSIG

Hora: 20:23 (16:53 UTC)

Pronòstic

L'informe es va fer fa 5 hores i 33 minuts, a les 11:20 UTC
Pronòstic vàlid del 12 a les 12 UTC al 13 a les 18 UTC
Vent 8 kt del Oest
Visibilitat: 8000 m

TAF: OIIE 121120Z 1212/1318 27008KT 8000 NSC

Observacions i pronòstics meteorològics de més de 4000 aeroports (METAR i TAF).

Les estacions disponibles són els punts grocs i vermells al mapa.

Posi el ratolí al punt desitjat per veure el nom de l'estació.

Feu clic per veure les observacions i els pronòstics meteorològics.

Per canviar el mapa: feu clic els botons verds amb una creu de color negre per apropar; al botó verd amb un guió per allunyar la imatge; o en les fletxes verdes per a mapes adjacents.


METAR-TAF: